sensor_id;sensor_type;location;lat;lon;timestamp;P1;durP1;ratioP1;P2;durP2;ratioP2
1026;SDS011;502;48.746;9.214;2022-08-06T00:00:11;3.67;;;3.10;;
1026;SDS011;502;48.746;9.214;2022-08-06T00:02:38;3.17;;;2.63;;
1026;SDS011;502;48.746;9.214;2022-08-06T00:05:05;3.60;;;3.30;;
1026;SDS011;502;48.746;9.214;2022-08-06T00:07:32;3.80;;;2.60;;
1026;SDS011;502;48.746;9.214;2022-08-06T00:09:59;3.77;;;2.97;;
1026;SDS011;502;48.746;9.214;2022-08-06T00:12:26;4.53;;;2.50;;
1026;SDS011;502;48.746;9.214;2022-08-06T00:14:53;4.27;;;2.63;;
1026;SDS011;502;48.746;9.214;2022-08-06T00:17:21;3.00;;;2.70;;
1026;SDS011;502;48.746;9.214;2022-08-06T00:19:48;3.10;;;2.80;;
1026;SDS011;502;48.746;9.214;2022-08-06T00:22:15;2.73;;;2.43;;
1026;SDS011;502;48.746;9.214;2022-08-06T00:24:41;3.53;;;2.67;;
1026;SDS011;502;48.746;9.214;2022-08-06T00:27:08;2.90;;;2.70;;
1026;SDS011;502;48.746;9.214;2022-08-06T00:29:35;2.60;;;2.40;;
1026;SDS011;502;48.746;9.214;2022-08-06T00:32:01;4.13;;;2.80;;
1026;SDS011;502;48.746;9.214;2022-08-06T00:34:30;3.00;;;2.60;;
1026;SDS011;502;48.746;9.214;2022-08-06T00:36:56;2.93;;;2.43;;
1026;SDS011;502;48.746;9.214;2022-08-06T00:39:23;3.50;;;2.57;;
1026;SDS011;502;48.746;9.214;2022-08-06T00:41:50;3.10;;;2.80;;
1026;SDS011;502;48.746;9.214;2022-08-06T00:44:16;3.67;;;2.80;;
1026;SDS011;502;48.746;9.214;2022-08-06T00:46:44;4.47;;;2.60;;
1026;SDS011;502;48.746;9.214;2022-08-06T00:49:12;3.13;;;2.60;;
1026;SDS011;502;48.746;9.214;2022-08-06T00:51:41;3.10;;;2.80;;
1026;SDS011;502;48.746;9.214;2022-08-06T00:54:08;2.67;;;2.47;;
1026;SDS011;502;48.746;9.214;2022-08-06T00:56:34;2.40;;;2.20;;
1026;SDS011;502;48.746;9.214;2022-08-06T00:59:02;2.73;;;2.53;;
1026;SDS011;502;48.746;9.214;2022-08-06T01:01:29;2.73;;;2.53;;
1026;SDS011;502;48.746;9.214;2022-08-06T01:03:56;3.97;;;3.20;;
1026;SDS011;502;48.746;9.214;2022-08-06T01:06:25;2.80;;;2.33;;
1026;SDS011;502;48.746;9.214;2022-08-06T01:08:53;3.10;;;2.50;;
1026;SDS011;502;48.746;9.214;2022-08-06T01:11:19;3.07;;;2.77;;
1026;SDS011;502;48.746;9.214;2022-08-06T01:13:46;2.80;;;2.20;;
1026;SDS011;502;48.746;9.214;2022-08-06T01:16:15;3.20;;;2.90;;
1026;SDS011;502;48.746;9.214;2022-08-06T01:18:50;2.50;;;2.30;;
1026;SDS011;502;48.746;9.214;2022-08-06T01:27:20;2.70;;;2.50;;
1026;SDS011;502;48.746;9.214;2022-08-06T01:29:56;2.77;;;2.57;;
1026;SDS011;502;48.746;9.214;2022-08-06T01:32:29;2.67;;;2.33;;
1026;SDS011;502;48.746;9.214;2022-08-06T01:34:59;3.70;;;2.50;;
1026;SDS011;502;48.746;9.214;2022-08-06T01:37:30;2.70;;;2.50;;
1026;SDS011;502;48.746;9.214;2022-08-06T01:40:02;2.60;;;2.27;;
1026;SDS011;502;48.746;9.214;2022-08-06T01:42:32;2.43;;;2.23;;
1026;SDS011;502;48.746;9.214;2022-08-06T01:45:01;3.20;;;2.20;;
1026;SDS011;502;48.746;9.214;2022-08-06T01:47:30;2.60;;;2.40;;
1026;SDS011;502;48.746;9.214;2022-08-06T01:49:59;4.03;;;2.30;;
1026;SDS011;502;48.746;9.214;2022-08-06T01:52:31;2.90;;;2.70;;
1026;SDS011;502;48.746;9.214;2022-08-06T01:55:00;2.50;;;2.30;;
1026;SDS011;502;48.746;9.214;2022-08-06T01:57:28;2.77;;;2.57;;
1026;SDS011;502;48.746;9.214;2022-08-06T01:59:59;2.83;;;2.00;;
1026;SDS011;502;48.746;9.214;2022-08-06T02:02:27;2.93;;;2.70;;
1026;SDS011;502;48.746;9.214;2022-08-06T02:04:55;2.80;;;2.50;;
1026;SDS011;502;48.746;9.214;2022-08-06T02:07:25;3.40;;;2.43;;
1026;SDS011;502;48.746;9.214;2022-08-06T02:09:53;2.57;;;2.30;;
1026;SDS011;502;48.746;9.214;2022-08-06T02:12:24;2.60;;;2.40;;
1026;SDS011;502;48.746;9.214;2022-08-06T02:14:53;3.00;;;2.70;;
1026;SDS011;502;48.746;9.214;2022-08-06T02:17:22;2.93;;;2.40;;
1026;SDS011;502;48.746;9.214;2022-08-06T02:19:51;2.73;;;2.17;;
1026;SDS011;502;48.746;9.214;2022-08-06T02:22:20;3.33;;;2.60;;
1026;SDS011;502;48.746;9.214;2022-08-06T02:24:47;2.70;;;2.50;;
1026;SDS011;502;48.746;9.214;2022-08-06T02:27:14;3.93;;;2.70;;
1026;SDS011;502;48.746;9.214;2022-08-06T02:29:42;3.00;;;2.70;;
1026;SDS011;502;48.746;9.214;2022-08-06T02:32:11;2.80;;;2.57;;
1026;SDS011;502;48.746;9.214;2022-08-06T02:34:39;3.07;;;2.50;;
1026;SDS011;502;48.746;9.214;2022-08-06T02:37:07;2.53;;;2.20;;
1026;SDS011;502;48.746;9.214;2022-08-06T02:39:40;2.87;;;2.67;;
1026;SDS011;502;48.746;9.214;2022-08-06T02:42:12;2.93;;;2.53;;
1026;SDS011;502;48.746;9.214;2022-08-06T02:44:45;4.00;;;2.20;;
1026;SDS011;502;48.746;9.214;2022-08-06T02:47:19;3.67;;;2.83;;
1026;SDS011;502;48.746;9.214;2022-08-06T02:49:49;2.40;;;2.20;;
1026;SDS011;502;48.746;9.214;2022-08-06T02:52:18;3.00;;;2.70;;
1026;SDS011;502;48.746;9.214;2022-08-06T02:54:53;2.40;;;2.20;;
1026;SDS011;502;48.746;9.214;2022-08-06T02:57:23;2.67;;;2.20;;
1026;SDS011;502;48.746;9.214;2022-08-06T02:59:53;3.90;;;2.60;;
1026;SDS011;502;48.746;9.214;2022-08-06T03:02:23;3.10;;;2.37;;
1026;SDS011;502;48.746;9.214;2022-08-06T03:04:51;2.73;;;2.53;;
1026;SDS011;502;48.746;9.214;2022-08-06T03:07:20;4.03;;;2.80;;
1026;SDS011;502;48.746;9.214;2022-08-06T03:09:48;3.10;;;2.30;;
1026;SDS011;502;48.746;9.214;2022-08-06T03:12:15;3.50;;;2.47;;
1026;SDS011;502;48.746;9.214;2022-08-06T03:14:42;2.97;;;2.67;;
1026;SDS011;502;48.746;9.214;2022-08-06T03:17:11;3.07;;;2.77;;
1026;SDS011;502;48.746;9.214;2022-08-06T03:19:40;4.60;;;2.60;;
1026;SDS011;502;48.746;9.214;2022-08-06T03:22:09;3.70;;;2.37;;
1026;SDS011;502;48.746;9.214;2022-08-06T03:24:36;2.70;;;2.50;;
1026;SDS011;502;48.746;9.214;2022-08-06T03:27:04;4.10;;;2.63;;
1026;SDS011;502;48.746;9.214;2022-08-06T03:29:31;3.70;;;2.70;;
1026;SDS011;502;48.746;9.214;2022-08-06T03:31:59;2.83;;;2.53;;
1026;SDS011;502;48.746;9.214;2022-08-06T03:34:26;2.87;;;2.63;;
1026;SDS011;502;48.746;9.214;2022-08-06T03:36:56;2.70;;;2.50;;
1026;SDS011;502;48.746;9.214;2022-08-06T03:39:23;2.90;;;2.70;;
1026;SDS011;502;48.746;9.214;2022-08-06T03:41:50;3.27;;;2.97;;
1026;SDS011;502;48.746;9.214;2022-08-06T03:44:18;2.70;;;2.50;;
1026;SDS011;502;48.746;9.214;2022-08-06T03:46:46;3.27;;;2.77;;
1026;SDS011;502;48.746;9.214;2022-08-06T03:49:18;2.97;;;2.77;;
1026;SDS011;502;48.746;9.214;2022-08-06T03:51:48;2.80;;;2.60;;
1026;SDS011;502;48.746;9.214;2022-08-06T03:54:20;2.60;;;2.40;;
1026;SDS011;502;48.746;9.214;2022-08-06T03:56:49;9.43;;;2.83;;
1026;SDS011;502;48.746;9.214;2022-08-06T03:59:16;3.23;;;2.67;;
1026;SDS011;502;48.746;9.214;2022-08-06T04:01:44;3.73;;;3.00;;
1026;SDS011;502;48.746;9.214;2022-08-06T04:04:12;2.90;;;2.60;;
1026;SDS011;502;48.746;9.214;2022-08-06T04:06:41;3.10;;;2.80;;
1026;SDS011;502;48.746;9.214;2022-08-06T04:09:08;3.93;;;2.57;;
1026;SDS011;502;48.746;9.214;2022-08-06T04:11:36;3.27;;;2.70;;
1026;SDS011;502;48.746;9.214;2022-08-06T04:14:06;3.07;;;2.87;;
1026;SDS011;502;48.746;9.214;2022-08-06T04:16:33;3.00;;;2.70;;
1026;SDS011;502;48.746;9.214;2022-08-06T04:19:00;2.70;;;2.50;;
1026;SDS011;502;48.746;9.214;2022-08-06T04:21:28;3.40;;;2.73;;
1026;SDS011;502;48.746;9.214;2022-08-06T04:23:54;2.43;;;2.23;;
1026;SDS011;502;48.746;9.214;2022-08-06T04:26:22;3.70;;;3.03;;
1026;SDS011;502;48.746;9.214;2022-08-06T04:28:51;3.93;;;2.80;;
1026;SDS011;502;48.746;9.214;2022-08-06T04:31:20;3.50;;;3.10;;
1026;SDS011;502;48.746;9.214;2022-08-06T04:33:48;3.87;;;3.00;;
1026;SDS011;502;48.746;9.214;2022-08-06T04:36:15;2.90;;;2.70;;
1026;SDS011;502;48.746;9.214;2022-08-06T04:38:42;2.60;;;2.40;;
1026;SDS011;502;48.746;9.214;2022-08-06T04:41:09;3.10;;;2.90;;
1026;SDS011;502;48.746;9.214;2022-08-06T04:43:37;2.80;;;2.60;;
1026;SDS011;502;48.746;9.214;2022-08-06T04:46:05;3.40;;;3.10;;
1026;SDS011;502;48.746;9.214;2022-08-06T04:48:33;6.40;;;3.20;;
1026;SDS011;502;48.746;9.214;2022-08-06T04:51:01;2.57;;;2.37;;
1026;SDS011;502;48.746;9.214;2022-08-06T04:53:28;3.40;;;3.10;;
1026;SDS011;502;48.746;9.214;2022-08-06T04:56:02;2.70;;;2.47;;
1026;SDS011;502;48.746;9.214;2022-08-06T04:58:28;3.10;;;2.80;;
1026;SDS011;502;48.746;9.214;2022-08-06T05:00:55;3.77;;;3.47;;
1026;SDS011;502;48.746;9.214;2022-08-06T05:03:23;3.57;;;3.27;;
1026;SDS011;502;48.746;9.214;2022-08-06T05:05:52;3.93;;;3.40;;
1026;SDS011;502;48.746;9.214;2022-08-06T05:08:20;4.27;;;3.60;;
1026;SDS011;502;48.746;9.214;2022-08-06T05:10:51;3.40;;;3.10;;
1026;SDS011;502;48.746;9.214;2022-08-06T05:13:21;3.40;;;2.43;;
1026;SDS011;502;48.746;9.214;2022-08-06T05:15:49;4.63;;;3.60;;
1026;SDS011;502;48.746;9.214;2022-08-06T05:18:25;4.63;;;3.13;;
1026;SDS011;502;48.746;9.214;2022-08-06T05:20:55;3.37;;;3.07;;
1026;SDS011;502;48.746;9.214;2022-08-06T05:23:25;3.60;;;3.30;;
1026;SDS011;502;48.746;9.214;2022-08-06T05:25:53;3.90;;;3.60;;
1026;SDS011;502;48.746;9.214;2022-08-06T05:28:20;3.40;;;3.10;;
1026;SDS011;502;48.746;9.214;2022-08-06T05:30:48;3.63;;;3.20;;
1026;SDS011;502;48.746;9.214;2022-08-06T05:33:22;4.00;;;3.20;;
1026;SDS011;502;48.746;9.214;2022-08-06T05:35:51;5.03;;;3.50;;
1026;SDS011;502;48.746;9.214;2022-08-06T05:38:17;3.40;;;3.10;;
1026;SDS011;502;48.746;9.214;2022-08-06T05:40:44;5.73;;;3.00;;
1026;SDS011;502;48.746;9.214;2022-08-06T05:43:11;3.50;;;3.10;;
1026;SDS011;502;48.746;9.214;2022-08-06T05:45:38;3.60;;;3.30;;
1026;SDS011;502;48.746;9.214;2022-08-06T05:48:06;3.40;;;3.10;;
1026;SDS011;502;48.746;9.214;2022-08-06T05:50:36;4.20;;;3.47;;
1026;SDS011;502;48.746;9.214;2022-08-06T05:53:08;3.80;;;3.23;;
1026;SDS011;502;48.746;9.214;2022-08-06T05:55:37;3.17;;;2.80;;
1026;SDS011;502;48.746;9.214;2022-08-06T05:58:06;3.47;;;3.13;;
1026;SDS011;502;48.746;9.214;2022-08-06T06:00:36;3.70;;;3.40;;
1026;SDS011;502;48.746;9.214;2022-08-06T06:03:06;4.83;;;3.40;;
1026;SDS011;502;48.746;9.214;2022-08-06T06:05:35;3.63;;;3.33;;
1026;SDS011;502;48.746;9.214;2022-08-06T06:08:03;3.77;;;3.37;;
1026;SDS011;502;48.746;9.214;2022-08-06T06:10:31;4.50;;;3.47;;
1026;SDS011;502;48.746;9.214;2022-08-06T06:12:59;3.83;;;3.53;;
1026;SDS011;502;48.746;9.214;2022-08-06T06:15:26;3.97;;;3.67;;
1026;SDS011;502;48.746;9.214;2022-08-06T06:18:03;3.33;;;3.03;;
1026;SDS011;502;48.746;9.214;2022-08-06T06:20:38;3.00;;;2.80;;
1026;SDS011;502;48.746;9.214;2022-08-06T06:23:11;3.67;;;3.30;;
1026;SDS011;502;48.746;9.214;2022-08-06T06:25:43;4.20;;;3.77;;
1026;SDS011;502;48.746;9.214;2022-08-06T06:28:13;3.43;;;3.13;;
1026;SDS011;502;48.746;9.214;2022-08-06T06:30:46;4.07;;;3.67;;
1026;SDS011;502;48.746;9.214;2022-08-06T06:33:18;3.47;;;3.20;;
1026;SDS011;502;48.746;9.214;2022-08-06T06:35:50;2.97;;;2.77;;
1026;SDS011;502;48.746;9.214;2022-08-06T06:38:21;3.77;;;3.47;;
1026;SDS011;502;48.746;9.214;2022-08-06T06:40:53;3.03;;;2.73;;
1026;SDS011;502;48.746;9.214;2022-08-06T06:43:34;3.87;;;3.10;;
1026;SDS011;502;48.746;9.214;2022-08-06T06:46:06;4.90;;;3.60;;
1026;SDS011;502;48.746;9.214;2022-08-06T06:48:40;4.23;;;3.60;;
1026;SDS011;502;48.746;9.214;2022-08-06T06:51:11;4.30;;;3.43;;
1026;SDS011;502;48.746;9.214;2022-08-06T06:53:42;4.70;;;3.27;;
1026;SDS011;502;48.746;9.214;2022-08-06T06:56:13;3.80;;;3.50;;
1026;SDS011;502;48.746;9.214;2022-08-06T06:58:42;3.60;;;3.30;;
1026;SDS011;502;48.746;9.214;2022-08-06T07:01:13;3.47;;;3.17;;
1026;SDS011;502;48.746;9.214;2022-08-06T07:03:42;3.40;;;3.10;;
1026;SDS011;502;48.746;9.214;2022-08-06T07:06:11;3.50;;;3.20;;
1026;SDS011;502;48.746;9.214;2022-08-06T07:08:40;3.70;;;3.27;;
1026;SDS011;502;48.746;9.214;2022-08-06T07:11:10;4.57;;;3.50;;
1026;SDS011;502;48.746;9.214;2022-08-06T07:13:37;4.17;;;3.80;;
1026;SDS011;502;48.746;9.214;2022-08-06T07:16:05;6.63;;;3.73;;
1026;SDS011;502;48.746;9.214;2022-08-06T07:18:33;3.63;;;3.17;;
1026;SDS011;502;48.746;9.214;2022-08-06T07:21:01;4.10;;;3.13;;
1026;SDS011;502;48.746;9.214;2022-08-06T07:23:30;3.80;;;3.40;;
1026;SDS011;502;48.746;9.214;2022-08-06T07:25:57;5.30;;;3.40;;
1026;SDS011;502;48.746;9.214;2022-08-06T07:28:25;3.53;;;3.23;;
1026;SDS011;502;48.746;9.214;2022-08-06T07:30:52;3.70;;;3.40;;
1026;SDS011;502;48.746;9.214;2022-08-06T07:33:20;3.70;;;3.40;;
1026;SDS011;502;48.746;9.214;2022-08-06T07:35:49;4.77;;;3.90;;
1026;SDS011;502;48.746;9.214;2022-08-06T07:38:17;7.50;;;3.77;;
1026;SDS011;502;48.746;9.214;2022-08-06T07:40:47;3.97;;;3.60;;
1026;SDS011;502;48.746;9.214;2022-08-06T07:43:17;5.17;;;3.57;;
1026;SDS011;502;48.746;9.214;2022-08-06T07:45:46;4.30;;;3.87;;
1026;SDS011;502;48.746;9.214;2022-08-06T07:48:15;6.53;;;3.40;;
1026;SDS011;502;48.746;9.214;2022-08-06T07:50:44;3.83;;;3.47;;
1026;SDS011;502;48.746;9.214;2022-08-06T07:53:13;4.30;;;3.90;;
1026;SDS011;502;48.746;9.214;2022-08-06T07:55:40;4.90;;;3.80;;
1026;SDS011;502;48.746;9.214;2022-08-06T07:58:09;4.37;;;3.97;;
1026;SDS011;502;48.746;9.214;2022-08-06T08:00:36;4.00;;;3.70;;
1026;SDS011;502;48.746;9.214;2022-08-06T08:03:05;4.90;;;4.00;;
1026;SDS011;502;48.746;9.214;2022-08-06T08:05:49;3.87;;;3.57;;
1026;SDS011;502;48.746;9.214;2022-08-06T08:08:34;4.37;;;3.97;;
1026;SDS011;502;48.746;9.214;2022-08-06T08:11:01;4.00;;;3.60;;
1026;SDS011;502;48.746;9.214;2022-08-06T08:13:29;4.00;;;3.60;;
1026;SDS011;502;48.746;9.214;2022-08-06T08:15:57;5.17;;;4.30;;
1026;SDS011;502;48.746;9.214;2022-08-06T08:18:27;5.30;;;3.60;;
1026;SDS011;502;48.746;9.214;2022-08-06T08:20:54;4.53;;;4.13;;
1026;SDS011;502;48.746;9.214;2022-08-06T08:23:22;5.20;;;3.70;;
1026;SDS011;502;48.746;9.214;2022-08-06T08:25:49;3.83;;;3.53;;
1026;SDS011;502;48.746;9.214;2022-08-06T08:28:16;4.07;;;3.43;;
1026;SDS011;502;48.746;9.214;2022-08-06T08:30:44;3.70;;;3.30;;
1026;SDS011;502;48.746;9.214;2022-08-06T08:33:11;4.07;;;3.70;;
1026;SDS011;502;48.746;9.214;2022-08-06T08:35:38;4.10;;;3.70;;
1026;SDS011;502;48.746;9.214;2022-08-06T08:38:05;3.90;;;3.60;;
1026;SDS011;502;48.746;9.214;2022-08-06T08:40:31;3.80;;;3.40;;
1026;SDS011;502;48.746;9.214;2022-08-06T08:43:01;4.83;;;3.87;;
1026;SDS011;502;48.746;9.214;2022-08-06T08:45:28;4.53;;;3.67;;
1026;SDS011;502;48.746;9.214;2022-08-06T08:47:57;3.40;;;3.07;;
1026;SDS011;502;48.746;9.214;2022-08-06T08:50:25;4.07;;;3.67;;
1026;SDS011;502;48.746;9.214;2022-08-06T08:52:55;3.70;;;3.40;;
1026;SDS011;502;48.746;9.214;2022-08-06T08:55:25;5.00;;;3.70;;
1026;SDS011;502;48.746;9.214;2022-08-06T08:57:51;3.80;;;3.43;;
1026;SDS011;502;48.746;9.214;2022-08-06T09:00:20;4.00;;;3.43;;
1026;SDS011;502;48.746;9.214;2022-08-06T09:02:47;5.20;;;3.80;;
1026;SDS011;502;48.746;9.214;2022-08-06T09:05:16;4.90;;;4.47;;
1026;SDS011;502;48.746;9.214;2022-08-06T09:07:43;4.17;;;3.77;;
1026;SDS011;502;48.746;9.214;2022-08-06T09:10:10;6.00;;;3.63;;
1026;SDS011;502;48.746;9.214;2022-08-06T09:12:37;4.00;;;3.70;;
1026;SDS011;502;48.746;9.214;2022-08-06T09:15:04;3.80;;;3.50;;
1026;SDS011;502;48.746;9.214;2022-08-06T09:17:32;4.80;;;3.90;;
1026;SDS011;502;48.746;9.214;2022-08-06T09:19:58;3.70;;;3.23;;
1026;SDS011;502;48.746;9.214;2022-08-06T09:22:26;3.60;;;3.30;;
1026;SDS011;502;48.746;9.214;2022-08-06T09:24:53;4.60;;;3.80;;
1026;SDS011;502;48.746;9.214;2022-08-06T09:27:20;4.20;;;3.73;;
1026;SDS011;502;48.746;9.214;2022-08-06T09:29:48;3.43;;;3.13;;
1026;SDS011;502;48.746;9.214;2022-08-06T09:35:14;4.10;;;3.80;;
1026;SDS011;502;48.746;9.214;2022-08-06T09:37:43;4.43;;;4.03;;
1026;SDS011;502;48.746;9.214;2022-08-06T09:40:11;4.07;;;3.67;;
1026;SDS011;502;48.746;9.214;2022-08-06T09:42:38;3.60;;;3.30;;
1026;SDS011;502;48.746;9.214;2022-08-06T09:45:06;4.50;;;4.10;;
1026;SDS011;502;48.746;9.214;2022-08-06T09:47:34;4.60;;;4.20;;
1026;SDS011;502;48.746;9.214;2022-08-06T09:50:03;6.43;;;4.60;;
1026;SDS011;502;48.746;9.214;2022-08-06T09:52:30;4.00;;;3.60;;
1026;SDS011;502;48.746;9.214;2022-08-06T09:55:01;3.80;;;3.50;;
1026;SDS011;502;48.746;9.214;2022-08-06T09:57:40;4.47;;;4.07;;
1026;SDS011;502;48.746;9.214;2022-08-06T10:00:08;4.63;;;3.73;;
1026;SDS011;502;48.746;9.214;2022-08-06T10:02:36;5.23;;;3.80;;
1026;SDS011;502;48.746;9.214;2022-08-06T10:05:06;5.47;;;4.07;;
1026;SDS011;502;48.746;9.214;2022-08-06T10:07:34;4.40;;;4.10;;
1026;SDS011;502;48.746;9.214;2022-08-06T10:10:02;3.80;;;3.50;;
1026;SDS011;502;48.746;9.214;2022-08-06T10:12:29;3.60;;;3.30;;
1026;SDS011;502;48.746;9.214;2022-08-06T10:14:56;4.00;;;3.70;;
1026;SDS011;502;48.746;9.214;2022-08-06T10:17:23;4.03;;;3.70;;
1026;SDS011;502;48.746;9.214;2022-08-06T10:20:03;3.90;;;3.60;;
1026;SDS011;502;48.746;9.214;2022-08-06T10:22:32;4.20;;;3.90;;
1026;SDS011;502;48.746;9.214;2022-08-06T10:25:00;5.70;;;5.03;;
1026;SDS011;502;48.746;9.214;2022-08-06T10:27:31;5.20;;;4.00;;
1026;SDS011;502;48.746;9.214;2022-08-06T10:30:00;5.40;;;4.13;;
1026;SDS011;502;48.746;9.214;2022-08-06T10:32:29;4.23;;;3.80;;
1026;SDS011;502;48.746;9.214;2022-08-06T10:34:59;4.40;;;4.07;;
1026;SDS011;502;48.746;9.214;2022-08-06T10:37:27;4.70;;;4.30;;
1026;SDS011;502;48.746;9.214;2022-08-06T10:39:55;3.77;;;3.47;;
1026;SDS011;502;48.746;9.214;2022-08-06T10:42:24;4.50;;;4.20;;
1026;SDS011;502;48.746;9.214;2022-08-06T10:44:51;4.20;;;3.90;;
1026;SDS011;502;48.746;9.214;2022-08-06T10:47:18;5.30;;;3.90;;
1026;SDS011;502;48.746;9.214;2022-08-06T10:49:46;3.67;;;3.30;;
1026;SDS011;502;48.746;9.214;2022-08-06T10:52:14;4.73;;;3.90;;
1026;SDS011;502;48.746;9.214;2022-08-06T10:54:40;4.00;;;3.70;;
1026;SDS011;502;48.746;9.214;2022-08-06T10:57:07;3.60;;;3.40;;
1026;SDS011;502;48.746;9.214;2022-08-06T10:59:41;6.10;;;3.73;;
1026;SDS011;502;48.746;9.214;2022-08-06T11:02:19;4.40;;;3.80;;
1026;SDS011;502;48.746;9.214;2022-08-06T11:04:50;3.87;;;3.57;;
1026;SDS011;502;48.746;9.214;2022-08-06T11:13:02;5.17;;;3.67;;
1026;SDS011;502;48.746;9.214;2022-08-06T11:15:36;6.40;;;4.33;;
1026;SDS011;502;48.746;9.214;2022-08-06T11:18:04;4.60;;;4.23;;
1026;SDS011;502;48.746;9.214;2022-08-06T11:20:35;5.00;;;4.60;;
1026;SDS011;502;48.746;9.214;2022-08-06T11:23:24;4.17;;;3.77;;
1026;SDS011;502;48.746;9.214;2022-08-06T11:25:53;4.40;;;4.00;;
1026;SDS011;502;48.746;9.214;2022-08-06T11:31:40;4.30;;;3.93;;
1026;SDS011;502;48.746;9.214;2022-08-06T11:34:11;4.90;;;3.90;;
1026;SDS011;502;48.746;9.214;2022-08-06T11:36:50;5.43;;;4.90;;
1026;SDS011;502;48.746;9.214;2022-08-06T11:39:20;5.10;;;3.40;;
1026;SDS011;502;48.746;9.214;2022-08-06T11:41:52;4.27;;;3.97;;
1026;SDS011;502;48.746;9.214;2022-08-06T11:44:21;4.47;;;4.10;;
1026;SDS011;502;48.746;9.214;2022-08-06T11:46:59;4.30;;;4.00;;
1026;SDS011;502;48.746;9.214;2022-08-06T11:49:36;5.00;;;3.40;;
1026;SDS011;502;48.746;9.214;2022-08-06T11:52:04;4.03;;;3.73;;
1026;SDS011;502;48.746;9.214;2022-08-06T11:54:31;4.40;;;4.00;;
1026;SDS011;502;48.746;9.214;2022-08-06T12:00:02;4.30;;;3.83;;
1026;SDS011;502;48.746;9.214;2022-08-06T12:02:45;4.20;;;3.80;;
1026;SDS011;502;48.746;9.214;2022-08-06T12:08:16;4.10;;;3.80;;
1026;SDS011;502;48.746;9.214;2022-08-06T12:14:17;5.33;;;4.00;;
1026;SDS011;502;48.746;9.214;2022-08-06T12:17:09;3.80;;;3.40;;
1026;SDS011;502;48.746;9.214;2022-08-06T12:19:43;4.40;;;4.10;;
1026;SDS011;502;48.746;9.214;2022-08-06T12:22:11;4.60;;;4.20;;
1026;SDS011;502;48.746;9.214;2022-08-06T12:24:39;3.83;;;3.53;;
1026;SDS011;502;48.746;9.214;2022-08-06T12:27:07;4.20;;;3.80;;
1026;SDS011;502;48.746;9.214;2022-08-06T12:29:34;4.43;;;4.10;;
1026;SDS011;502;48.746;9.214;2022-08-06T12:32:01;4.90;;;4.50;;
1026;SDS011;502;48.746;9.214;2022-08-06T12:34:28;4.07;;;3.77;;
1026;SDS011;502;48.746;9.214;2022-08-06T12:36:56;4.53;;;4.13;;
1026;SDS011;502;48.746;9.214;2022-08-06T12:39:28;4.60;;;4.20;;
1026;SDS011;502;48.746;9.214;2022-08-06T12:42:24;4.10;;;3.80;;
1026;SDS011;502;48.746;9.214;2022-08-06T12:44:52;4.73;;;4.33;;
1026;SDS011;502;48.746;9.214;2022-08-06T12:47:19;4.20;;;3.87;;
1026;SDS011;502;48.746;9.214;2022-08-06T12:49:46;4.73;;;4.33;;
1026;SDS011;502;48.746;9.214;2022-08-06T12:52:15;5.97;;;4.50;;
1026;SDS011;502;48.746;9.214;2022-08-06T12:54:43;4.57;;;4.17;;
1026;SDS011;502;48.746;9.214;2022-08-06T12:57:18;4.53;;;4.23;;
1026;SDS011;502;48.746;9.214;2022-08-06T12:59:46;4.30;;;4.00;;
1026;SDS011;502;48.746;9.214;2022-08-06T13:02:13;4.17;;;3.87;;
1026;SDS011;502;48.746;9.214;2022-08-06T13:04:42;4.50;;;3.80;;
1026;SDS011;502;48.746;9.214;2022-08-06T13:07:10;4.40;;;4.00;;
1026;SDS011;502;48.746;9.214;2022-08-06T13:09:38;5.80;;;4.50;;
1026;SDS011;502;48.746;9.214;2022-08-06T13:12:12;4.10;;;3.80;;
1026;SDS011;502;48.746;9.214;2022-08-06T13:14:49;3.80;;;3.50;;
1026;SDS011;502;48.746;9.214;2022-08-06T13:17:17;4.87;;;4.07;;
1026;SDS011;502;48.746;9.214;2022-08-06T13:19:50;3.97;;;3.67;;
1026;SDS011;502;48.746;9.214;2022-08-06T13:22:18;3.50;;;3.30;;
1026;SDS011;502;48.746;9.214;2022-08-06T13:24:46;3.43;;;3.17;;
1026;SDS011;502;48.746;9.214;2022-08-06T13:27:13;4.07;;;3.53;;
1026;SDS011;502;48.746;9.214;2022-08-06T13:32:25;3.87;;;3.57;;
1026;SDS011;502;48.746;9.214;2022-08-06T13:34:53;4.30;;;3.47;;
1026;SDS011;502;48.746;9.214;2022-08-06T13:40:08;3.30;;;3.10;;
1026;SDS011;502;48.746;9.214;2022-08-06T13:42:46;3.37;;;3.17;;
1026;SDS011;502;48.746;9.214;2022-08-06T13:45:20;3.90;;;3.40;;
1026;SDS011;502;48.746;9.214;2022-08-06T13:47:48;4.73;;;3.50;;
1026;SDS011;502;48.746;9.214;2022-08-06T13:50:17;3.93;;;3.43;;
1026;SDS011;502;48.746;9.214;2022-08-06T13:52:44;3.90;;;3.57;;
1026;SDS011;502;48.746;9.214;2022-08-06T13:55:12;4.07;;;3.77;;
1026;SDS011;502;48.746;9.214;2022-08-06T13:57:39;4.03;;;3.17;;
1026;SDS011;502;48.746;9.214;2022-08-06T14:00:06;3.47;;;3.27;;
1026;SDS011;502;48.746;9.214;2022-08-06T14:02:34;4.07;;;3.77;;
1026;SDS011;502;48.746;9.214;2022-08-06T14:05:01;3.70;;;3.40;;
1026;SDS011;502;48.746;9.214;2022-08-06T14:07:28;3.57;;;3.27;;
1026;SDS011;502;48.746;9.214;2022-08-06T14:09:55;3.87;;;3.50;;
1026;SDS011;502;48.746;9.214;2022-08-06T14:12:23;3.93;;;3.07;;
1026;SDS011;502;48.746;9.214;2022-08-06T14:14:50;3.70;;;3.40;;
1026;SDS011;502;48.746;9.214;2022-08-06T14:17:17;3.30;;;3.10;;
1026;SDS011;502;48.746;9.214;2022-08-06T14:19:44;3.30;;;3.00;;
1026;SDS011;502;48.746;9.214;2022-08-06T14:22:11;3.27;;;2.97;;
1026;SDS011;502;48.746;9.214;2022-08-06T14:24:38;3.13;;;2.93;;
1026;SDS011;502;48.746;9.214;2022-08-06T14:27:05;3.70;;;3.40;;
1026;SDS011;502;48.746;9.214;2022-08-06T14:29:33;3.40;;;3.20;;
1026;SDS011;502;48.746;9.214;2022-08-06T14:35:00;3.23;;;2.90;;
1026;SDS011;502;48.746;9.214;2022-08-06T14:37:27;7.73;;;3.27;;
1026;SDS011;502;48.746;9.214;2022-08-06T14:39:54;3.40;;;3.10;;
1026;SDS011;502;48.746;9.214;2022-08-06T14:42:20;6.13;;;3.73;;
1026;SDS011;502;48.746;9.214;2022-08-06T14:45:06;3.50;;;3.20;;
1026;SDS011;502;48.746;9.214;2022-08-06T14:47:33;3.83;;;3.40;;
1026;SDS011;502;48.746;9.214;2022-08-06T14:50:00;2.90;;;2.70;;
1026;SDS011;502;48.746;9.214;2022-08-06T14:52:27;5.40;;;3.07;;
1026;SDS011;502;48.746;9.214;2022-08-06T14:54:54;3.87;;;3.13;;
1026;SDS011;502;48.746;9.214;2022-08-06T14:57:21;3.47;;;3.17;;
1026;SDS011;502;48.746;9.214;2022-08-06T14:59:48;3.07;;;2.80;;
1026;SDS011;502;48.746;9.214;2022-08-06T15:02:17;3.20;;;2.93;;
1026;SDS011;502;48.746;9.214;2022-08-06T15:04:44;3.77;;;2.80;;
1026;SDS011;502;48.746;9.214;2022-08-06T15:07:10;3.20;;;2.87;;
1026;SDS011;502;48.746;9.214;2022-08-06T15:09:37;3.63;;;3.27;;
1026;SDS011;502;48.746;9.214;2022-08-06T15:12:04;3.50;;;3.20;;
1026;SDS011;502;48.746;9.214;2022-08-06T15:14:31;4.00;;;2.80;;
1026;SDS011;502;48.746;9.214;2022-08-06T15:16:59;2.77;;;2.10;;
1026;SDS011;502;48.746;9.214;2022-08-06T15:19:27;5.23;;;2.70;;
1026;SDS011;502;48.746;9.214;2022-08-06T15:21:54;2.80;;;2.60;;
1026;SDS011;502;48.746;9.214;2022-08-06T15:24:21;3.00;;;2.70;;
1026;SDS011;502;48.746;9.214;2022-08-06T15:26:48;3.93;;;2.70;;
1026;SDS011;502;48.746;9.214;2022-08-06T15:29:15;3.97;;;2.40;;
1026;SDS011;502;48.746;9.214;2022-08-06T15:31:42;2.67;;;2.47;;
1026;SDS011;502;48.746;9.214;2022-08-06T15:34:09;3.07;;;2.60;;
1026;SDS011;502;48.746;9.214;2022-08-06T15:36:37;2.77;;;2.57;;
1026;SDS011;502;48.746;9.214;2022-08-06T15:39:04;2.50;;;2.30;;
1026;SDS011;502;48.746;9.214;2022-08-06T15:41:32;4.40;;;2.80;;
1026;SDS011;502;48.746;9.214;2022-08-06T15:43:58;4.00;;;2.83;;
1026;SDS011;502;48.746;9.214;2022-08-06T15:46:26;2.93;;;2.73;;
1026;SDS011;502;48.746;9.214;2022-08-06T15:48:52;3.00;;;2.80;;
1026;SDS011;502;48.746;9.214;2022-08-06T15:51:21;3.10;;;2.80;;
1026;SDS011;502;48.746;9.214;2022-08-06T15:53:50;3.93;;;2.70;;
1026;SDS011;502;48.746;9.214;2022-08-06T15:56:17;3.47;;;3.10;;
1026;SDS011;502;48.746;9.214;2022-08-06T15:58:44;3.40;;;3.00;;
1026;SDS011;502;48.746;9.214;2022-08-06T16:01:11;3.63;;;3.27;;
1026;SDS011;502;48.746;9.214;2022-08-06T16:03:38;2.90;;;2.70;;
1026;SDS011;502;48.746;9.214;2022-08-06T16:06:11;3.40;;;2.57;;
1026;SDS011;502;48.746;9.214;2022-08-06T16:08:37;4.00;;;2.87;;
1026;SDS011;502;48.746;9.214;2022-08-06T16:11:06;3.47;;;2.90;;
1026;SDS011;502;48.746;9.214;2022-08-06T16:13:33;3.10;;;2.90;;
1026;SDS011;502;48.746;9.214;2022-08-06T16:16:00;3.03;;;2.60;;